Kopperl, Texas
Current Conditions -  °F | °C
As of 1:15 PM on Sunday 21 Dec 2014 (Local Time) from KCPT Reporting Station
Overcast Overcast  
Wind Chill: 50°   Ceiling: 1200
Heat Index: 50°   Visibility: 9mi
Dew Point: 48°   Wind: 15mph
Humidity: 94%   Direction: 180°S
Pressure: 29.94"   Gusts: NA
Location:  32.07°N, 97.5°W
Report Text: KCPT 211915Z AUTO 18013KT 9SM OVC012 10/09 A2994 RMK AO2
Loading
Personal Weather Stations






























Interactive Weather Map New forecast layout! Learn more

10-Day Weather Forecast

Advertisements
Track Severe Weather on mobile